Time;durP1;ratioP1;P1;durP2;ratioP2;P2;SDS_P1;SDS_P2;PMS_P1;PMS_P2;Temp;Humidity;BMP_temperature;BMP_pressure;BME280_temperature;BME280_humidity;BME280_pressure;Samples;Min_cycle;Max_cycle;Signal;HPM_P1;HPM_P2
2023/08/25 00:03:05;;;;;;;;;;;21.00;99.90;;;;;;12228658;29;20455;-37
2023/08/25 00:09:09;;;;;;;;;;;20.90;99.90;;;;;;12229698;29;19977;-37
2023/08/25 00:15:11;;;;;;;;;;;20.90;99.90;;;;;;12228617;29;19934;-37
2023/08/25 00:21:15;;;;;;;;;;;20.90;99.90;;;;;;12227786;29;20784;-36
2023/08/25 00:27:17;;;;;;;;;;;20.90;99.90;;;;;;12225664;29;19978;-37
2023/08/25 00:33:18;;;;;;;;;;;20.90;99.90;;;;;;12226204;29;19931;-37
2023/08/25 00:39:20;;;;;;;;;;;21.00;99.90;;;;;;12225323;29;19930;-37
2023/08/25 00:45:22;;;;;;;;;;;21.00;99.90;;;;;;12228425;29;19977;-37
2023/08/25 00:51:25;;;;;;;;;;;21.00;99.90;;;;;;12229255;29;19930;-36
2023/08/25 00:57:27;;;;;;;;;;;21.00;99.90;;;;;;12224898;29;19937;-37
2023/08/25 01:03:29;;;;;;;;;;;20.90;99.90;;;;;;12217950;29;19985;-36
2023/08/25 01:09:32;;;;;;;;;;;21.00;99.90;;;;;;12233083;28;19931;-38
2023/08/25 01:15:35;;;;;;;;;;;21.00;99.90;;;;;;12225649;29;19939;-37
2023/08/25 01:21:41;;;;;;;;;;;21.00;99.90;;;;;;12222451;29;20025;-37
2023/08/25 01:27:43;;;;;;;;;;;20.80;99.90;;;;;;12228682;28;20393;-37
2023/08/25 01:33:45;;;;;;;;;;;20.80;99.90;;;;;;12228873;29;19937;-37
2023/08/25 01:39:48;;;;;;;;;;;20.90;99.90;;;;;;12219438;29;19931;-37
2023/08/25 01:45:51;;;;;;;;;;;20.80;99.90;;;;;;12226047;29;19981;-37
2023/08/25 01:51:53;;;;;;;;;;;20.70;99.90;;;;;;12223582;29;19934;-36
2023/08/25 01:57:55;;;;;;;;;;;20.60;99.90;;;;;;12224566;29;20280;-37
2023/08/25 02:03:57;;;;;;;;;;;20.60;99.90;;;;;;12226096;29;19930;-37
2023/08/25 02:09:59;;;;;;;;;;;20.60;99.90;;;;;;12225202;29;20033;-36
2023/08/25 02:16:01;;;;;;;;;;;20.60;99.90;;;;;;12234529;29;20041;-37
2023/08/25 02:22:04;;;;;;;;;;;20.70;99.90;;;;;;12233492;29;19930;-36
2023/08/25 02:28:05;;;;;;;;;;;20.50;99.90;;;;;;12232469;29;19931;-37
2023/08/25 02:34:07;;;;;;;;;;;20.40;99.90;;;;;;12234427;29;19970;-36
2023/08/25 02:40:10;;;;;;;;;;;20.30;99.90;;;;;;12231735;29;20310;-37
2023/08/25 02:46:12;;;;;;;;;;;20.20;99.90;;;;;;12229753;29;20026;-37
2023/08/25 02:52:13;;;;;;;;;;;20.20;99.90;;;;;;12234359;29;19931;-36
2023/08/25 02:58:16;;;;;;;;;;;20.20;99.90;;;;;;12230378;29;19938;-36
2023/08/25 03:04:18;;;;;;;;;;;20.10;99.90;;;;;;12231960;29;20003;-37
2023/08/25 03:10:20;;;;;;;;;;;19.90;99.90;;;;;;12233718;29;19930;-37
2023/08/25 03:16:22;;;;;;;;;;;19.80;99.90;;;;;;12233632;29;20029;-37
2023/08/25 03:22:24;;;;;;;;;;;19.80;99.90;;;;;;12231959;29;19938;-37
2023/08/25 03:28:25;;;;;;;;;;;19.60;99.90;;;;;;12232320;29;19946;-37
2023/08/25 03:34:29;;;;;;;;;;;19.70;99.90;;;;;;12231714;29;19933;-37
2023/08/25 03:40:31;;;;;;;;;;;19.70;99.90;;;;;;12229347;29;19930;-37
2023/08/25 03:46:33;;;;;;;;;;;19.80;99.90;;;;;;12232730;29;19958;-37
2023/08/25 03:52:35;;;;;;;;;;;19.90;99.90;;;;;;12231775;29;19927;-36
2023/08/25 03:58:36;;;;;;;;;;;19.90;99.90;;;;;;12232718;29;19931;-36
2023/08/25 04:04:38;;;;;;;;;;;19.90;99.90;;;;;;12226760;29;19935;-36
2023/08/25 04:10:41;;;;;;;;;;;19.80;99.90;;;;;;12228437;29;19941;-36
2023/08/25 04:16:42;;;;;;;;;;;19.90;99.90;;;;;;12230265;29;20030;-37
2023/08/25 04:22:44;;;;;;;;;;;19.80;99.90;;;;;;12230277;29;19930;-37
2023/08/25 04:28:46;;;;;;;;;;;19.80;99.90;;;;;;12230946;29;19945;-37
2023/08/25 04:34:48;;;;;;;;;;;19.80;99.90;;;;;;12225195;29;19931;-37
2023/08/25 04:40:50;;;;;;;;;;;19.90;99.90;;;;;;12227211;29;19931;-37
2023/08/25 04:46:52;;;;;;;;;;;19.80;99.90;;;;;;12230526;29;19927;-37
2023/08/25 04:52:53;;;;;;;;;;;20.10;99.90;;;;;;12217565;29;20419;-36
2023/08/25 04:58:55;;;;;;;;;;;20.40;99.90;;;;;;12227575;29;19986;-37
2023/08/25 05:04:58;;;;;;;;;;;20.80;99.90;;;;;;12226184;29;19931;-36
2023/08/25 05:11:00;;;;;;;;;;;20.90;99.90;;;;;;12225840;29;19977;-37
2023/08/25 05:17:02;;;;;;;;;;;20.80;99.90;;;;;;12229823;29;19930;-37
2023/08/25 05:23:03;;;;;;;;;;;20.60;99.90;;;;;;12229346;29;19930;-36
2023/08/25 05:29:05;;;;;;;;;;;20.40;99.90;;;;;;12221072;29;19960;-37
2023/08/25 05:35:08;;;;;;;;;;;20.40;99.90;;;;;;12227675;29;19934;-37
2023/08/25 05:41:10;;;;;;;;;;;20.40;99.90;;;;;;12226839;29;20826;-37
2023/08/25 05:47:11;;;;;;;;;;;20.30;99.90;;;;;;12241579;29;19977;-37
2023/08/25 05:53:13;;;;;;;;;;;20.40;99.90;;;;;;12242241;29;19962;-37
2023/08/25 05:59:15;;;;;;;;;;;20.50;99.90;;;;;;12244001;29;20442;-37
2023/08/25 06:05:17;;;;;;;;;;;20.60;99.90;;;;;;12240035;29;20400;-37
2023/08/25 06:11:19;;;;;;;;;;;20.60;99.90;;;;;;12240086;29;19966;-37
2023/08/25 06:17:21;;;;;;;;;;;20.80;99.90;;;;;;12245985;29;19974;-37
2023/08/25 06:23:23;;;;;;;;;;;21.00;99.90;;;;;;12250906;28;20520;-37
2023/08/25 06:29:24;;;;;;;;;;;21.10;99.90;;;;;;12245084;29;19986;-36
2023/08/25 06:35:26;;;;;;;;;;;21.10;99.90;;;;;;12239961;29;20006;-37
2023/08/25 06:41:28;;;;;;;;;;;21.20;99.90;;;;;;12242992;29;19931;-37
2023/08/25 06:47:30;;;;;;;;;;;21.30;99.90;;;;;;12242247;29;20034;-38
2023/08/25 06:53:32;;;;;;;;;;;21.40;99.90;;;;;;12241348;29;19931;-36
2023/08/25 06:59:33;;;;;;;;;;;21.30;99.90;;;;;;12237359;29;20001;-36
2023/08/25 07:05:38;;;;;;;;;;;21.30;99.90;;;;;;12234687;29;19934;-37
2023/08/25 07:11:40;;;;;;;;;;;21.50;99.90;;;;;;12236170;29;19958;-38
2023/08/25 07:17:41;;;;;;;;;;;21.50;99.90;;;;;;12235397;29;19931;-39
2023/08/25 07:23:43;;;;;;;;;;;21.50;99.90;;;;;;12239103;29;19930;-37
2023/08/25 07:29:45;;;;;;;;;;;21.60;99.90;;;;;;12234627;29;20045;-37
2023/08/25 07:35:47;;;;;;;;;;;21.50;99.90;;;;;;12162115;29;20564;-37
2023/08/25 07:41:49;;;;;;;;;;;21.70;99.90;;;;;;12155548;29;19937;-36
2023/08/25 07:47:51;;;;;;;;;;;21.90;99.90;;;;;;12211733;29;19962;-38
2023/08/25 07:53:53;;;;;;;;;;;22.00;99.90;;;;;;12221966;29;19931;-37
2023/08/25 07:59:55;;;;;;;;;;;22.20;99.90;;;;;;12218785;29;20384;-37
2023/08/25 08:05:56;;;;;;;;;;;22.20;99.90;;;;;;12212668;29;20408;-38
2023/08/25 08:11:58;;;;;;;;;;;22.30;99.90;;;;;;12230657;29;20387;-37
2023/08/25 08:18:01;;;;;;;;;;;22.70;99.90;;;;;;12231129;29;19954;-40
2023/08/25 08:24:03;;;;;;;;;;;23.00;99.90;;;;;;12227909;29;19935;-37
2023/08/25 08:30:05;;;;;;;;;;;23.20;99.90;;;;;;12233259;29;19949;-38
2023/08/25 08:36:07;;;;;;;;;;;23.10;99.90;;;;;;12231480;29;19977;-37
2023/08/25 08:42:11;;;;;;;;;;;23.20;99.90;;;;;;12225497;29;19931;-37
2023/08/25 08:48:13;;;;;;;;;;;23.10;99.90;;;;;;12229390;29;20022;-37
2023/08/25 08:54:19;;;;;;;;;;;23.20;99.90;;;;;;12225859;29;19934;-37
2023/08/25 09:00:21;;;;;;;;;;;23.20;99.90;;;;;;12230733;29;19934;-37
2023/08/25 09:06:23;;;;;;;;;;;23.00;99.90;;;;;;12227467;29;19931;-37
2023/08/25 09:12:24;;;;;;;;;;;22.80;99.90;;;;;;12227779;29;19986;-39
2023/08/25 09:18:32;;;;;;;;;;;22.60;99.90;;;;;;12230052;29;19927;-37
2023/08/25 09:24:36;;;;;;;;;;;22.60;99.90;;;;;;12215813;29;20399;-37
2023/08/25 09:30:39;;;;;;;;;;;22.50;99.90;;;;;;12223577;29;20280;-37
2023/08/25 09:36:57;;;;;;;;;;;22.30;99.90;;;;;;12224441;29;19930;-37
2023/08/25 09:42:59;;;;;;;;;;;22.00;99.90;;;;;;12229344;29;20778;-37
2023/08/25 09:49:06;;;;;;;;;;;22.00;99.90;;;;;;12225333;29;20147;-38
2023/08/25 09:55:09;;;;;;;;;;;21.90;99.90;;;;;;12228435;29;19926;-36
2023/08/25 10:01:11;;;;;;;;;;;22.00;99.90;;;;;;12222532;29;20462;-37
2023/08/25 10:07:13;;;;;;;;;;;21.80;99.90;;;;;;12222749;29;19938;-37
2023/08/25 10:13:18;;;;;;;;;;;21.70;99.90;;;;;;12225642;29;20379;-37
2023/08/25 10:19:26;;;;;;;;;;;21.50;99.90;;;;;;12234428;28;19934;-37
2023/08/25 10:25:31;;;;;;;;;;;21.30;99.90;;;;;;12224301;29;19954;-37
2023/08/25 10:31:35;;;;;;;;;;;21.00;99.90;;;;;;12221461;29;20487;-37
2023/08/25 10:37:37;;;;;;;;;;;20.80;99.90;;;;;;12233525;29;19931;-36
2023/08/25 10:43:40;;;;;;;;;;;20.60;99.90;;;;;;12226966;29;19931;-36
2023/08/25 10:49:44;;;;;;;;;;;20.30;99.90;;;;;;12232324;29;19926;-36
2023/08/25 10:55:46;;;;;;;;;;;20.10;99.90;;;;;;12227923;29;20057;-37
2023/08/25 11:01:55;;;;;;;;;;;20.00;99.90;;;;;;12234548;29;20252;-36
2023/08/25 11:07:57;;;;;;;;;;;19.90;99.90;;;;;;12229639;29;19927;-36
2023/08/25 11:13:59;;;;;;;;;;;19.80;99.90;;;;;;12234090;29;20303;-37
2023/08/25 11:20:01;;;;;;;;;;;19.90;99.90;;;;;;12230117;29;19935;-37
2023/08/25 11:26:03;;;;;;;;;;;20.00;99.90;;;;;;12235342;29;20307;-36
2023/08/25 11:32:05;;;;;;;;;;;20.10;99.90;;;;;;12227879;29;19960;-36
2023/08/25 11:38:06;;;;;;;;;;;20.10;99.90;;;;;;12229334;29;19934;-36
2023/08/25 11:44:10;;;;;;;;;;;20.20;99.90;;;;;;12228534;29;19931;-36
2023/08/25 11:50:11;;;;;;;;;;;20.30;99.90;;;;;;12227689;29;19937;-36
2023/08/25 11:56:15;;;;;;;;;;;20.20;99.90;;;;;;12229848;29;19965;-37
2023/08/25 12:02:20;;;;;;;;;;;20.10;99.90;;;;;;12232320;29;20032;-37
2023/08/25 12:08:23;;;;;;;;;;;20.00;99.90;;;;;;12228891;29;19931;-37
2023/08/25 12:14:29;;;;;;;;;;;19.90;99.90;;;;;;12232263;29;19951;-37
2023/08/25 12:20:31;;;;;;;;;;;19.90;99.90;;;;;;12228627;28;19930;-37
2023/08/25 12:26:32;;;;;;;;;;;19.90;99.90;;;;;;12217011;29;19937;-37
2023/08/25 12:32:34;;;;;;;;;;;19.90;99.90;;;;;;12230362;29;20396;-37
2023/08/25 12:38:36;;;;;;;;;;;19.90;99.90;;;;;;12230519;29;22069;-37
2023/08/25 12:44:38;;;;;;;;;;;19.80;99.90;;;;;;12229534;29;19958;-36
2023/08/25 12:50:39;;;;;;;;;;;19.70;99.90;;;;;;12229008;29;20391;-37
2023/08/25 12:56:42;;;;;;;;;;;19.80;99.90;;;;;;12227146;29;19931;-37
2023/08/25 13:02:44;;;;;;;;;;;19.90;99.90;;;;;;12223979;29;19930;-37
2023/08/25 13:08:46;;;;;;;;;;;19.90;99.90;;;;;;12226784;29;19957;-37
2023/08/25 13:14:50;;;;;;;;;;;19.90;99.90;;;;;;12229573;29;19938;-36
2023/08/25 13:20:52;;;;;;;;;;;20.10;99.90;;;;;;12225397;29;20080;-37
2023/08/25 13:26:53;;;;;;;;;;;20.20;99.90;;;;;;12228055;29;20123;-37
2023/08/25 13:32:55;;;;;;;;;;;20.30;99.90;;;;;;12227400;29;20394;-37
2023/08/25 13:38:57;;;;;;;;;;;20.30;99.90;;;;;;12227615;29;20018;-37
2023/08/25 13:45:03;;;;;;;;;;;20.40;99.90;;;;;;12225891;29;20014;-37
2023/08/25 13:51:05;;;;;;;;;;;20.60;99.90;;;;;;12229973;28;20005;-37
2023/08/25 13:57:07;;;;;;;;;;;20.80;99.90;;;;;;12228665;29;20213;-37
2023/08/25 14:03:09;;;;;;;;;;;20.80;99.90;;;;;;12226452;29;19931;-37
2023/08/25 14:09:11;;;;;;;;;;;20.80;99.90;;;;;;12239730;29;19989;-36
2023/08/25 14:15:13;;;;;;;;;;;20.90;99.90;;;;;;12234276;29;19940;-37
2023/08/25 14:21:15;;;;;;;;;;;21.40;99.90;;;;;;12234581;29;19935;-37
2023/08/25 14:27:17;;;;;;;;;;;21.60;99.90;;;;;;12233010;29;19937;-37
2023/08/25 14:33:18;;;;;;;;;;;21.40;99.90;;;;;;12233540;29;20022;-36
2023/08/25 14:39:20;;;;;;;;;;;21.50;99.90;;;;;;12232665;29;20021;-37
2023/08/25 14:45:22;;;;;;;;;;;21.90;99.90;;;;;;12235720;29;19930;-37
2023/08/25 14:51:24;;;;;;;;;;;22.10;99.90;;;;;;12233923;29;20391;-37
2023/08/25 14:57:26;;;;;;;;;;;22.40;99.90;;;;;;12249483;28;20344;-37
2023/08/25 15:03:28;;;;;;;;;;;22.70;99.90;;;;;;12235573;29;19927;-37
2023/08/25 15:09:31;;;;;;;;;;;22.90;99.90;;;;;;12235778;29;19993;-36
2023/08/25 15:15:33;;;;;;;;;;;23.00;99.90;;;;;;12225163;29;19931;-38
2023/08/25 15:21:36;;;;;;;;;;;23.10;99.90;;;;;;12230375;29;19934;-37
2023/08/25 15:27:38;;;;;;;;;;;23.20;99.90;;;;;;12229180;29;20018;-38
2023/08/25 15:33:41;;;;;;;;;;;22.90;99.90;;;;;;12233657;29;19933;-37
2023/08/25 15:39:43;;;;;;;;;;;22.80;99.90;;;;;;12230642;29;19969;-37
2023/08/25 15:45:48;;;;;;;;;;;22.60;99.90;;;;;;12232011;29;20382;-37
2023/08/25 15:51:50;;;;;;;;;;;23.00;99.90;;;;;;12230960;29;19930;-36
2023/08/25 15:57:52;;;;;;;;;;;23.30;99.90;;;;;;12231450;29;20409;-37
2023/08/25 16:03:54;;;;;;;;;;;23.10;99.90;;;;;;12233573;29;19943;-37
2023/08/25 16:09:55;;;;;;;;;;;23.10;99.90;;;;;;12229527;29;20048;-37
2023/08/25 16:15:57;;;;;;;;;;;23.50;99.90;;;;;;12232635;29;19931;-37
2023/08/25 16:21:59;;;;;;;;;;;23.70;99.90;;;;;;12228626;29;20013;-38
2023/08/25 16:28:01;;;;;;;;;;;23.90;99.90;;;;;;12231116;29;19974;-39
2023/08/25 16:34:03;;;;;;;;;;;23.60;99.90;;;;;;12227469;29;19937;-37
2023/08/25 16:40:05;;;;;;;;;;;23.30;99.90;;;;;;12229359;29;19930;-38
2023/08/25 16:46:07;;;;;;;;;;;22.90;99.90;;;;;;12225564;29;19935;-37
2023/08/25 16:52:08;;;;;;;;;;;23.00;99.90;;;;;;12225228;29;19931;-37
2023/08/25 16:58:10;;;;;;;;;;;23.40;99.90;;;;;;12226102;29;20409;-37
2023/08/25 17:04:12;;;;;;;;;;;23.10;99.90;;;;;;12230294;29;19926;-38
2023/08/25 17:10:18;;;;;;;;;;;22.70;99.90;;;;;;12226854;29;20029;-38
2023/08/25 17:16:20;;;;;;;;;;;22.40;99.90;;;;;;12229620;29;20037;-37
2023/08/25 17:22:22;;;;;;;;;;;22.10;99.90;;;;;;12225068;29;19938;-38
2023/08/25 17:28:24;;;;;;;;;;;21.90;99.90;;;;;;12226951;29;20434;-37
2023/08/25 17:34:26;;;;;;;;;;;21.70;99.90;;;;;;12227994;29;20586;-37
2023/08/25 17:40:28;;;;;;;;;;;21.60;99.90;;;;;;12226235;29;20355;-37
2023/08/25 17:46:30;;;;;;;;;;;21.50;99.90;;;;;;12225230;29;19973;-37
2023/08/25 17:52:32;;;;;;;;;;;21.50;99.90;;;;;;12227271;29;20365;-37
2023/08/25 17:58:33;;;;;;;;;;;21.50;99.90;;;;;;12225184;29;20412;-37
2023/08/25 18:04:35;;;;;;;;;;;21.40;99.90;;;;;;12223271;29;19988;-38
2023/08/25 18:10:37;;;;;;;;;;;21.40;99.90;;;;;;12223572;29;20001;-37
2023/08/25 18:16:39;;;;;;;;;;;21.30;99.90;;;;;;12221781;29;19939;-37
2023/08/25 18:22:41;;;;;;;;;;;21.30;99.90;;;;;;12231059;28;19931;-37
2023/08/25 18:28:43;;;;;;;;;;;21.30;99.90;;;;;;12207938;29;19938;-37
2023/08/25 18:34:45;;;;;;;;;;;21.30;99.90;;;;;;12202662;29;19942;-37
2023/08/25 18:40:46;;;;;;;;;;;21.20;99.90;;;;;;12196333;29;19935;-37
2023/08/25 18:46:48;;;;;;;;;;;21.20;99.90;;;;;;12206276;29;20454;-37
2023/08/25 18:52:50;;;;;;;;;;;21.10;99.90;;;;;;12218000;29;19933;-37
2023/08/25 18:58:52;;;;;;;;;;;21.10;99.90;;;;;;12232361;29;19930;-37
2023/08/25 19:04:54;;;;;;;;;;;21.10;99.90;;;;;;12229895;29;19989;-37
2023/08/25 19:10:58;;;;;;;;;;;21.00;99.90;;;;;;12233652;29;19930;-37
2023/08/25 19:17:00;;;;;;;;;;;21.10;99.90;;;;;;12231666;29;19930;-38
2023/08/25 19:23:02;;;;;;;;;;;21.10;99.90;;;;;;12220737;29;20431;-36
2023/08/25 19:29:04;;;;;;;;;;;21.10;99.90;;;;;;12235113;28;20025;-37
2023/08/25 19:35:06;;;;;;;;;;;21.10;99.90;;;;;;12231401;29;20399;-37
2023/08/25 19:41:07;;;;;;;;;;;21.00;99.90;;;;;;12228343;29;20490;-39
2023/08/25 19:47:10;;;;;;;;;;;20.90;99.90;;;;;;12222374;29;19934;-38
2023/08/25 19:53:11;;;;;;;;;;;20.90;99.90;;;;;;12230808;29;20450;-37
2023/08/25 19:59:13;;;;;;;;;;;20.90;99.90;;;;;;12228100;29;20021;-37
2023/08/25 20:05:15;;;;;;;;;;;20.90;99.90;;;;;;12233182;29;19961;-37
2023/08/25 20:11:17;;;;;;;;;;;20.90;99.90;;;;;;12225292;29;20491;-38
2023/08/25 20:17:19;;;;;;;;;;;20.80;99.90;;;;;;12231483;29;19938;-37
2023/08/25 20:23:21;;;;;;;;;;;20.70;99.90;;;;;;12233403;29;19935;-37
2023/08/25 20:29:23;;;;;;;;;;;20.70;99.90;;;;;;12230144;29;20017;-37
2023/08/25 20:35:25;;;;;;;;;;;20.70;99.90;;;;;;12230517;29;19931;-37
2023/08/25 20:41:26;;;;;;;;;;;20.70;99.90;;;;;;12235020;29;20493;-37
2023/08/25 20:47:28;;;;;;;;;;;20.60;99.90;;;;;;12231811;29;20361;-37
2023/08/25 20:53:30;;;;;;;;;;;20.40;99.90;;;;;;12230826;29;19931;-37
2023/08/25 20:59:32;;;;;;;;;;;20.20;99.90;;;;;;12228906;29;19986;-37
2023/08/25 21:05:34;;;;;;;;;;;20.10;99.90;;;;;;12228818;29;19931;-37
2023/08/25 21:11:36;;;;;;;;;;;20.10;99.90;;;;;;12229467;29;20382;-37
2023/08/25 21:17:37;;;;;;;;;;;20.00;99.90;;;;;;12235691;28;19942;-37
2023/08/25 21:23:40;;;;;;;;;;;20.00;99.90;;;;;;12231988;29;20025;-37
2023/08/25 21:29:42;;;;;;;;;;;20.00;99.90;;;;;;12231161;29;20331;-37
2023/08/25 21:35:43;;;;;;;;;;;20.00;99.90;;;;;;12223844;29;19941;-37
2023/08/25 21:41:45;;;;;;;;;;;19.90;99.90;;;;;;12230155;29;20414;-37
2023/08/25 21:47:47;;;;;;;;;;;19.90;99.90;;;;;;12227811;29;19957;-37
2023/08/25 21:53:49;;;;;;;;;;;19.70;99.90;;;;;;12229673;29;19927;-37
2023/08/25 21:59:51;;;;;;;;;;;19.70;99.90;;;;;;12228763;29;20383;-37
2023/08/25 22:05:54;;;;;;;;;;;19.60;99.90;;;;;;12229668;29;19937;-38
2023/08/25 22:11:55;;;;;;;;;;;19.60;99.90;;;;;;12228271;29;19934;-38
2023/08/25 22:17:58;;;;;;;;;;;19.50;99.90;;;;;;12227773;29;19942;-36
2023/08/25 22:24:01;;;;;;;;;;;19.60;99.90;;;;;;12228751;29;20325;-37
2023/08/25 22:30:04;;;;;;;;;;;19.50;99.90;;;;;;12236712;29;20387;-37
2023/08/25 22:36:07;;;;;;;;;;;19.50;99.90;;;;;;12239005;29;20302;-36
2023/08/25 22:42:08;;;;;;;;;;;19.50;99.90;;;;;;12235273;29;20406;-37
2023/08/25 22:48:10;;;;;;;;;;;19.50;99.90;;;;;;12237093;29;20025;-37
2023/08/25 22:54:12;;;;;;;;;;;19.50;99.90;;;;;;12234448;29;19935;-37
2023/08/25 23:00:14;;;;;;;;;;;19.50;99.90;;;;;;12233506;29;19977;-37
2023/08/25 23:06:16;;;;;;;;;;;19.50;99.90;;;;;;12235790;29;19989;-36
2023/08/25 23:12:17;;;;;;;;;;;19.50;99.90;;;;;;12234522;29;20454;-37
2023/08/25 23:18:19;;;;;;;;;;;19.50;99.90;;;;;;12235943;29;19938;-37
2023/08/25 23:24:22;;;;;;;;;;;19.50;99.90;;;;;;12230165;29;20430;-36
2023/08/25 23:30:24;;;;;;;;;;;19.40;99.90;;;;;;12228927;29;19937;-36
2023/08/25 23:36:25;;;;;;;;;;;19.40;99.90;;;;;;12232431;29;19934;-37
2023/08/25 23:42:27;;;;;;;;;;;19.40;99.90;;;;;;12231486;29;19939;-38
2023/08/25 23:48:29;;;;;;;;;;;19.40;99.90;;;;;;12233838;29;20072;-37
2023/08/25 23:54:31;;;;;;;;;;;19.40;99.90;;;;;;12239255;28;20038;-37
